createdAt,value
2023-04-25T00:00:16.668Z,98358.13
2023-04-25T00:02:43.771Z,98369.78
2023-04-25T00:05:11.440Z,98367.56
2023-04-25T00:07:38.273Z,98369.97
2023-04-25T00:10:06.083Z,98373.13
2023-04-25T00:12:34.584Z,98370.19
2023-04-25T00:15:01.519Z,98375.75
2023-04-25T00:17:28.477Z,98379.16
2023-04-25T00:19:55.650Z,98375.22
2023-04-25T00:22:22.726Z,98375.91
2023-04-25T00:24:50.034Z,98371.81
2023-04-25T00:27:16.842Z,98377.06
2023-04-25T00:29:43.669Z,98370.00
2023-04-25T00:32:11.002Z,98378.66
2023-04-25T00:34:37.791Z,98377.59
2023-04-25T00:37:04.673Z,98381.03
2023-04-25T00:39:31.678Z,98377.81
2023-04-25T00:41:59.218Z,98377.38
2023-04-25T00:44:27.921Z,98375.78
2023-04-25T00:46:55.530Z,98377.31
2023-04-25T00:49:22.684Z,98371.41
2023-04-25T00:51:49.776Z,98373.34
2023-04-25T00:54:17.491Z,98378.16
2023-04-25T00:56:48.175Z,98366.34
2023-04-25T00:59:17.000Z,98366.03
2023-04-25T01:01:45.319Z,98371.00
2023-04-25T01:04:12.637Z,98366.59
2023-04-25T01:06:40.022Z,98362.69
2023-04-25T01:09:07.135Z,98358.19
2023-04-25T01:11:33.949Z,98365.13
2023-04-25T01:14:01.692Z,98367.00
2023-04-25T01:16:29.014Z,98369.81
2023-04-25T01:18:57.164Z,98363.94
2023-04-25T01:21:24.420Z,98364.69
2023-04-25T01:23:51.727Z,98360.88
2023-04-25T01:26:18.851Z,98358.00
2023-04-25T01:28:46.401Z,98356.09
2023-04-25T01:31:14.349Z,98364.72
2023-04-25T01:33:41.435Z,98363.72
2023-04-25T01:36:08.605Z,98361.09
2023-04-25T01:38:36.619Z,98360.03
2023-04-25T01:41:04.184Z,98361.63
2023-04-25T01:43:31.106Z,98367.03
2023-04-25T01:45:58.590Z,98355.63
2023-04-25T01:48:26.092Z,98363.72
2023-04-25T01:50:53.412Z,98359.91
2023-04-25T01:53:20.293Z,98366.41
2023-04-25T01:55:49.751Z,98372.31
2023-04-25T01:58:20.981Z,98373.31
2023-04-25T02:01:06.501Z,98375.75
2023-04-25T02:03:53.592Z,98372.69
2023-04-25T02:06:29.346Z,98369.63
2023-04-25T02:08:58.079Z,98363.09
2023-04-25T02:11:24.952Z,98368.50
2023-04-25T02:14:14.608Z,98368.88
2023-04-25T02:16:54.025Z,98372.44
2023-04-25T02:19:20.830Z,98369.38
2023-04-25T02:21:47.807Z,98375.94
2023-04-25T02:24:14.746Z,98373.06
2023-04-25T02:26:41.527Z,98370.91
2023-04-25T02:29:10.546Z,98366.69
2023-04-25T02:31:37.509Z,98375.47
2023-04-25T02:34:04.333Z,98371.16
2023-04-25T02:36:33.304Z,98381.13
2023-04-25T02:39:00.138Z,98375.63
2023-04-25T02:41:27.798Z,98374.91
2023-04-25T02:43:56.268Z,98375.25
2023-04-25T02:46:32.200Z,98371.69
2023-04-25T02:49:05.179Z,98367.91
2023-04-25T02:51:32.196Z,98360.75
2023-04-25T02:53:59.366Z,98365.31
2023-04-25T02:56:27.393Z,98369.06
2023-04-25T02:58:54.781Z,98362.63
2023-04-25T03:01:22.137Z,98357.97
2023-04-25T03:03:49.532Z,98362.63
2023-04-25T03:06:17.291Z,98359.22
2023-04-25T03:08:44.525Z,98356.34
2023-04-25T03:11:11.909Z,98356.91
2023-04-25T03:13:38.946Z,98358.78
2023-04-25T03:16:06.750Z,98362.47
2023-04-25T03:18:33.706Z,98358.47
2023-04-25T03:21:00.851Z,98359.94
2023-04-25T03:23:27.880Z,98356.44
2023-04-25T03:25:55.475Z,98355.31
2023-04-25T03:28:23.522Z,98356.31
2023-04-25T03:30:51.485Z,98357.25
2023-04-25T03:33:18.370Z,98357.53
2023-04-25T03:35:45.435Z,98361.47
2023-04-25T03:38:12.934Z,98366.19
2023-04-25T03:40:41.231Z,98367.88
2023-04-25T03:43:13.899Z,98362.63
2023-04-25T03:45:48.114Z,98364.50
2023-04-25T03:48:20.630Z,98370.63
2023-04-25T03:50:48.533Z,98371.75
2023-04-25T03:53:15.434Z,98372.63
2023-04-25T03:56:10.581Z,98368.41
2023-04-25T03:58:38.885Z,98377.50
2023-04-25T04:01:09.027Z,98367.16
2023-04-25T04:03:38.991Z,98370.34
2023-04-25T04:06:08.056Z,98378.06
2023-04-25T04:08:39.372Z,98377.56
2023-04-25T04:11:06.426Z,98375.75
2023-04-25T04:13:34.129Z,98379.44
2023-04-25T04:16:02.817Z,98389.25
2023-04-25T04:18:29.865Z,98392.53
2023-04-25T04:20:59.325Z,98389.31
2023-04-25T04:23:29.289Z,98398.69
2023-04-25T04:25:58.283Z,98395.78
2023-04-25T04:28:46.992Z,98400.84
2023-04-25T04:31:31.316Z,98411.47
2023-04-25T04:33:59.649Z,98416.88
2023-04-25T04:36:27.569Z,98416.72
2023-04-25T04:38:55.145Z,98423.78
2023-04-25T04:41:33.459Z,98419.97
2023-04-25T04:44:23.879Z,98421.91
2023-04-25T04:47:08.994Z,98417.09
2023-04-25T04:50:01.574Z,98419.44
2023-04-25T04:52:49.934Z,98430.97
2023-04-25T04:55:39.087Z,98438.53
2023-04-25T04:58:13.087Z,98443.13
2023-04-25T05:00:51.520Z,98444.34
2023-04-25T05:03:41.628Z,98444.81
2023-04-25T05:06:24.289Z,98453.03
2023-04-25T05:09:16.243Z,98459.88
2023-04-25T05:12:18.249Z,98467.72
2023-04-25T05:15:03.586Z,98465.59
2023-04-25T05:17:30.708Z,98469.63
2023-04-25T05:20:10.495Z,98478.78
2023-04-25T05:22:56.304Z,98479.81
2023-04-25T05:25:37.361Z,98478.16
2023-04-25T05:28:14.534Z,98489.47
2023-04-25T05:30:59.196Z,98476.28
2023-04-25T05:33:31.837Z,98470.22
2023-04-25T05:36:00.023Z,98467.09
2023-04-25T05:38:27.518Z,98473.06
2023-04-25T05:41:29.069Z,98466.28
2023-04-25T05:44:00.748Z,98471.13
2023-04-25T05:46:42.426Z,98479.56
2023-04-25T05:49:26.462Z,98487.88
2023-04-25T05:52:01.572Z,98484.66
2023-04-25T05:54:45.864Z,98489.81
2023-04-25T05:57:26.630Z,98489.91
2023-04-25T05:59:55.840Z,98484.66
2023-04-25T06:02:28.541Z,98483.97
2023-04-25T06:04:58.722Z,98492.91
2023-04-25T06:07:26.200Z,98496.00
2023-04-25T06:09:53.065Z,98499.53
2023-04-25T06:12:20.252Z,98491.94
2023-04-25T06:14:49.903Z,98480.59
2023-04-25T06:17:16.731Z,98484.88
2023-04-25T06:19:43.689Z,98499.59
2023-04-25T06:22:11.296Z,98500.25
2023-04-25T06:24:40.830Z,98500.16
2023-04-25T06:27:08.147Z,98493.38
2023-04-25T06:29:35.265Z,98497.25
2023-04-25T06:32:07.862Z,98504.97
2023-04-25T06:34:40.143Z,98516.59
2023-04-25T06:37:14.919Z,98501.09
2023-04-25T06:39:51.537Z,98503.44
2023-04-25T06:42:18.833Z,98502.22
2023-04-25T06:44:52.512Z,98509.97
2023-04-25T06:47:20.760Z,98506.72
2023-04-25T06:49:49.046Z,98505.50
2023-04-25T06:52:15.940Z,98507.50
2023-04-25T06:54:42.848Z,98505.50
2023-04-25T06:57:27.901Z,98503.72
2023-04-25T06:59:57.358Z,98511.75
2023-04-25T07:02:24.592Z,98512.66
2023-04-25T07:04:55.390Z,98508.97
2023-04-25T07:07:22.673Z,98513.00
2023-04-25T07:09:55.977Z,98505.72
2023-04-25T07:12:23.100Z,98523.88
2023-04-25T07:14:50.046Z,98512.28
2023-04-25T07:17:17.007Z,98511.19
2023-04-25T07:19:44.666Z,98513.88
2023-04-25T07:22:11.807Z,98516.84
2023-04-25T07:24:41.365Z,98513.88
2023-04-25T07:27:10.529Z,98510.16
2023-04-25T07:29:48.984Z,98502.19
2023-04-25T07:32:16.273Z,98508.97
2023-04-25T07:34:46.628Z,98513.28
2023-04-25T07:37:16.159Z,98508.28
2023-04-25T07:39:58.342Z,98509.56
2023-04-25T07:42:25.349Z,98516.00
2023-04-25T07:44:52.869Z,98518.94
2023-04-25T07:47:22.576Z,98524.09
2023-04-25T07:49:49.580Z,98537.44
2023-04-25T07:52:17.649Z,98531.78
2023-04-25T07:54:50.277Z,98535.81
2023-04-25T07:57:22.712Z,98530.59
2023-04-25T07:59:50.718Z,98544.59
2023-04-25T08:02:20.556Z,98530.28
2023-04-25T08:04:47.846Z,98537.63
2023-04-25T08:07:17.625Z,98545.16
2023-04-25T08:09:55.514Z,98545.88
2023-04-25T08:12:29.432Z,98551.94
2023-04-25T08:14:59.629Z,98548.25
2023-04-25T08:17:31.745Z,98559.31
2023-04-25T08:19:59.231Z,98553.13
2023-04-25T08:22:31.858Z,98564.81
2023-04-25T08:25:16.009Z,98565.16
2023-04-25T08:27:43.969Z,98566.13
2023-04-25T08:30:11.720Z,98565.94
2023-04-25T08:32:40.354Z,98572.72
2023-04-25T08:35:21.666Z,98579.00
2023-04-25T08:37:52.031Z,98584.34
2023-04-25T08:40:27.225Z,98579.72
2023-04-25T08:43:19.052Z,98579.03
2023-04-25T08:45:46.932Z,98588.00
2023-04-25T08:48:28.850Z,98584.97
2023-04-25T08:50:58.026Z,98588.81
2023-04-25T08:53:33.897Z,98577.13
2023-04-25T08:56:10.448Z,98580.94
2023-04-25T08:58:39.681Z,98594.78
2023-04-25T09:01:07.328Z,98583.72
2023-04-25T09:03:42.349Z,98583.94
2023-04-25T09:06:12.077Z,98592.50
2023-04-25T09:08:41.855Z,98588.56
2023-04-25T09:11:11.464Z,98589.41
2023-04-25T09:13:38.685Z,98594.50
2023-04-25T09:16:16.150Z,98596.72
2023-04-25T09:19:07.244Z,98590.56
2023-04-25T09:21:37.776Z,98601.72
2023-04-25T09:24:07.633Z,98609.56
2023-04-25T09:26:35.581Z,98605.41
2023-04-25T09:29:10.710Z,98598.03
2023-04-25T09:31:41.395Z,98604.78
2023-04-25T09:34:16.650Z,98603.59
2023-04-25T09:36:48.019Z,98603.69
2023-04-25T09:39:39.356Z,98602.84
2023-04-25T09:42:13.280Z,98608.69
2023-04-25T09:44:47.028Z,98614.53
2023-04-25T09:47:18.989Z,98619.00
2023-04-25T09:49:49.246Z,98625.28
2023-04-25T09:52:19.313Z,98623.44
2023-04-25T09:54:56.346Z,98622.53
2023-04-25T09:57:31.419Z,98614.16
2023-04-25T10:00:02.206Z,98622.66
2023-04-25T10:02:44.209Z,98624.81
2023-04-25T10:05:18.888Z,98625.84
2023-04-25T10:07:46.086Z,98631.19
2023-04-25T10:10:17.649Z,98635.53
2023-04-25T10:12:45.739Z,98633.91
2023-04-25T10:15:14.620Z,98640.00
2023-04-25T10:17:41.796Z,98634.06
2023-04-25T10:20:12.062Z,98639.16
2023-04-25T10:22:42.783Z,98642.13
2023-04-25T10:25:10.612Z,98654.97
2023-04-25T10:27:38.262Z,98652.75
2023-04-25T10:30:12.161Z,98662.03
2023-04-25T10:32:39.205Z,98655.13
2023-04-25T10:35:14.356Z,98660.47
2023-04-25T10:38:03.948Z,98660.97
2023-04-25T10:40:31.434Z,98664.97
2023-04-25T10:43:34.599Z,98654.03
2023-04-25T10:46:01.801Z,98662.50
2023-04-25T10:48:32.958Z,98672.69
2023-04-25T10:51:10.487Z,98673.28
2023-04-25T10:53:37.976Z,98672.78
2023-04-25T10:57:07.118Z,98672.53
2023-04-25T10:59:34.412Z,98668.72
2023-04-25T11:02:13.399Z,98670.56
2023-04-25T11:04:42.647Z,98677.91
2023-04-25T11:07:38.848Z,98677.53
2023-04-25T11:10:07.626Z,98679.53
2023-04-25T11:12:34.767Z,98677.72
2023-04-25T11:15:08.620Z,98687.31
2023-04-25T11:17:36.398Z,98699.72
2023-04-25T11:20:08.400Z,98701.03
2023-04-25T11:22:35.923Z,98708.09
2023-04-25T11:25:07.574Z,98711.09
2023-04-25T11:27:50.655Z,98704.25
2023-04-25T11:30:18.119Z,98710.94
2023-04-25T11:32:45.065Z,98709.31
2023-04-25T11:35:12.465Z,98712.22
2023-04-25T11:37:43.627Z,98712.69
2023-04-25T11:40:12.651Z,98717.38
2023-04-25T11:42:44.316Z,98716.50
2023-04-25T11:45:12.045Z,98712.56
2023-04-25T11:47:38.971Z,98709.06
2023-04-25T11:50:08.716Z,98702.75
2023-04-25T11:52:46.162Z,98704.06
2023-04-25T11:55:21.650Z,98711.19
2023-04-25T11:57:51.269Z,98703.84
2023-04-25T12:00:21.130Z,98718.69
2023-04-25T12:02:52.926Z,98713.66
2023-04-25T12:07:53.585Z,98717.50
2023-04-25T12:10:20.839Z,98729.19
2023-04-25T12:12:49.527Z,98723.63
2023-04-25T12:15:25.605Z,98726.22
2023-04-25T12:17:55.066Z,98728.53
2023-04-25T12:20:26.149Z,98730.28
2023-04-25T12:22:53.999Z,98736.78
2023-04-25T12:25:44.497Z,98736.00
2023-04-25T12:28:17.094Z,98738.69
2023-04-25T12:30:58.769Z,98729.28
2023-04-25T12:33:27.940Z,98737.47
2023-04-25T12:35:55.882Z,98742.97
2023-04-25T12:38:35.020Z,98743.84
2023-04-25T12:41:02.145Z,98740.09
2023-04-25T12:43:29.114Z,98744.50
2023-04-25T12:45:56.989Z,98747.69
2023-04-25T12:48:24.441Z,98743.72
2023-04-25T12:51:16.926Z,98753.16
2023-04-25T12:53:43.725Z,98755.78
2023-04-25T12:56:10.676Z,98748.41
2023-04-25T12:58:37.712Z,98754.84
2023-04-25T13:01:04.894Z,98754.06
2023-04-25T13:03:31.997Z,98752.31
2023-04-25T13:05:58.965Z,98756.81
2023-04-25T13:08:26.076Z,98749.47
2023-04-25T13:10:56.225Z,98757.94
2023-04-25T13:13:23.629Z,98761.00
2023-04-25T13:15:50.748Z,98760.78
2023-04-25T13:18:17.771Z,98754.78
2023-04-25T13:20:44.654Z,98745.19
2023-04-25T13:23:11.558Z,98755.06
2023-04-25T13:25:38.418Z,98750.13
2023-04-25T13:28:05.793Z,98754.31
2023-04-25T13:30:32.610Z,98753.13
2023-04-25T13:33:04.410Z,98757.41
2023-04-25T13:35:32.220Z,98759.59
2023-04-25T13:37:58.995Z,98757.66
2023-04-25T13:40:26.144Z,98751.78
2023-04-25T13:43:42.650Z,98748.38
2023-04-25T13:46:20.639Z,98756.38
2023-04-25T13:49:03.026Z,98752.28
2023-04-25T13:51:37.059Z,98758.53
2023-04-25T13:54:04.164Z,98765.56
2023-04-25T13:56:31.456Z,98776.19
2023-04-25T13:58:58.562Z,98773.06
2023-04-25T14:01:25.432Z,98769.56
2023-04-25T14:03:52.465Z,98785.97
2023-04-25T14:06:23.812Z,98786.44
2023-04-25T14:08:51.758Z,98782.00
2023-04-25T14:11:19.412Z,98784.81
2023-04-25T14:13:46.992Z,98791.88
2023-04-25T14:16:13.873Z,98787.94
2023-04-25T14:18:41.001Z,98791.91
2023-04-25T14:21:08.073Z,98787.97
2023-04-25T14:23:34.768Z,98791.44
2023-04-25T14:26:01.712Z,98785.03
2023-04-25T14:28:28.461Z,98783.16
2023-04-25T14:30:55.354Z,98791.38
2023-04-25T14:33:22.351Z,98785.97
2023-04-25T14:35:49.251Z,98796.75
2023-04-25T14:38:16.212Z,98792.72
2023-04-25T14:40:43.833Z,98787.53
2023-04-25T14:43:10.646Z,98775.41
2023-04-25T14:45:37.389Z,98782.53
2023-04-25T14:48:04.543Z,98783.75
2023-04-25T14:50:31.840Z,98791.84
2023-04-25T14:53:02.170Z,98792.31
2023-04-25T14:55:29.344Z,98792.53
2023-04-25T14:57:57.565Z,98794.06
2023-04-25T15:00:26.378Z,98805.53
2023-04-25T15:03:04.391Z,98806.75
2023-04-25T15:05:31.846Z,98808.66
2023-04-25T15:07:59.454Z,98808.34
2023-04-25T15:10:26.539Z,98803.16
2023-04-25T15:12:54.646Z,98802.13
2023-04-25T15:15:26.620Z,98805.78
2023-04-25T15:17:59.115Z,98809.34
2023-04-25T15:20:26.900Z,98807.34
2023-04-25T15:22:53.853Z,98819.25
2023-04-25T15:25:20.576Z,98818.16
2023-04-25T15:27:49.492Z,98825.34
2023-04-25T15:30:17.800Z,98835.78
2023-04-25T15:32:46.081Z,98837.41
2023-04-25T15:35:13.338Z,98840.50
2023-04-25T15:37:41.519Z,98848.41
2023-04-25T15:40:15.050Z,98840.84
2023-04-25T15:42:44.438Z,98835.50
2023-04-25T15:45:12.288Z,98837.41
2023-04-25T15:47:39.267Z,98832.75
2023-04-25T15:50:08.634Z,98834.81
2023-04-25T15:52:36.793Z,98836.81
2023-04-25T15:55:08.901Z,98840.66
2023-04-25T15:57:51.544Z,98837.19
2023-04-25T16:00:50.302Z,98835.44
2023-04-25T16:03:17.258Z,98844.78
2023-04-25T16:05:44.156Z,98845.56
2023-04-25T16:08:10.886Z,98844.03
2023-04-25T16:10:38.509Z,98838.97
2023-04-25T16:13:06.489Z,98845.38
2023-04-25T16:15:35.321Z,98841.66
2023-04-25T16:18:03.189Z,98848.22
2023-04-25T16:20:31.404Z,98855.00
2023-04-25T16:22:58.802Z,98839.81
2023-04-25T16:25:25.542Z,98846.97
2023-04-25T16:27:52.596Z,98846.25
2023-04-25T16:30:19.467Z,98845.88
2023-04-25T16:32:46.241Z,98860.03
2023-04-25T16:35:12.943Z,98868.22
2023-04-25T16:37:39.717Z,98863.53
2023-04-25T16:40:10.088Z,98859.66
2023-04-25T16:42:37.067Z,98867.91
2023-04-25T16:45:05.283Z,98860.97
2023-04-25T16:47:32.805Z,98854.94
2023-04-25T16:50:01.638Z,98862.91
2023-04-25T16:52:28.490Z,98856.75
2023-04-25T16:54:55.258Z,98849.41
2023-04-25T16:57:22.107Z,98859.72
2023-04-25T16:59:48.760Z,98861.56
2023-04-25T17:02:16.053Z,98860.41
2023-04-25T17:04:42.947Z,98861.91
2023-04-25T17:07:09.753Z,98866.16
2023-04-25T17:09:36.808Z,98875.38
2023-04-25T17:12:04.476Z,98870.03
2023-04-25T17:14:33.217Z,98877.28
2023-04-25T17:17:00.309Z,98874.19
2023-04-25T17:19:28.270Z,98878.13
2023-04-25T17:21:55.953Z,98891.00
2023-04-25T17:24:22.678Z,98887.41
2023-04-25T17:26:49.496Z,98889.00
2023-04-25T17:29:16.346Z,98892.75
2023-04-25T17:31:44.322Z,98900.09
2023-04-25T17:34:12.303Z,98900.91
2023-04-25T17:36:39.018Z,98903.00
2023-04-25T17:39:07.454Z,98903.16
2023-04-25T17:41:34.278Z,98909.94
2023-04-25T17:44:01.411Z,98909.25
2023-04-25T17:46:29.578Z,98910.28
2023-04-25T17:48:59.346Z,98911.66
2023-04-25T17:51:26.695Z,98911.63
2023-04-25T17:53:53.465Z,98917.09
2023-04-25T17:56:26.962Z,98920.19
2023-04-25T17:58:54.525Z,98919.94
2023-04-25T18:01:21.766Z,98922.00
2023-04-25T18:03:50.316Z,98925.84
2023-04-25T18:06:18.141Z,98934.44
2023-04-25T18:08:45.418Z,98932.81
2023-04-25T18:11:12.424Z,98934.56
2023-04-25T18:13:39.831Z,98948.19
2023-04-25T18:16:07.643Z,98942.81
2023-04-25T18:18:36.358Z,98948.34
2023-04-25T18:21:05.759Z,98951.25
2023-04-25T18:23:34.297Z,98958.53
2023-04-25T18:26:02.895Z,98966.91
2023-04-25T18:28:29.796Z,98963.56
2023-04-25T18:30:57.133Z,98966.50
2023-04-25T18:33:24.068Z,98976.88
2023-04-25T18:35:58.205Z,98970.34
2023-04-25T18:42:56.038Z,98987.06
2023-04-25T18:45:22.816Z,98989.69
2023-04-25T18:47:49.651Z,98997.13
2023-04-25T18:50:20.290Z,98990.16
2023-04-25T18:52:47.101Z,98993.47
2023-04-25T18:55:15.013Z,98987.13
2023-04-25T18:57:42.218Z,98985.16
2023-04-25T19:00:09.573Z,98995.34
2023-04-25T19:02:39.425Z,98997.03
2023-04-25T19:05:06.990Z,98993.84
2023-04-25T19:07:33.875Z,99005.34
2023-04-25T19:10:00.681Z,99006.25
2023-04-25T19:12:27.383Z,99004.00
2023-04-25T19:14:54.162Z,99005.66
2023-04-25T19:17:20.915Z,99010.31
2023-04-25T19:19:47.837Z,99002.41
2023-04-25T19:22:14.789Z,99010.69
2023-04-25T19:24:41.591Z,99011.59
2023-04-25T19:27:08.610Z,99012.28
2023-04-25T19:29:36.482Z,99021.47
2023-04-25T19:32:03.559Z,99028.03
2023-04-25T19:34:30.466Z,99029.56
2023-04-25T19:36:57.618Z,99025.22
2023-04-25T19:39:24.364Z,99027.50
2023-04-25T19:41:51.249Z,99034.00
2023-04-25T19:44:18.039Z,99037.06
2023-04-25T19:46:46.889Z,99035.34
2023-04-25T19:49:13.850Z,99039.78
2023-04-25T19:51:42.133Z,99038.72
2023-04-25T19:54:08.946Z,99034.75
2023-04-25T19:56:35.860Z,99038.81
2023-04-25T19:59:02.947Z,99040.50
2023-04-25T20:01:30.472Z,99049.59
2023-04-25T20:03:57.449Z,99045.66
2023-04-25T20:06:24.314Z,99055.41
2023-04-25T20:08:53.447Z,99055.44
2023-04-25T20:11:20.338Z,99056.66
2023-04-25T20:13:47.512Z,99060.84
2023-04-25T20:16:19.892Z,99062.13
2023-04-25T20:18:50.543Z,99066.94
2023-04-25T20:21:17.715Z,99068.53
2023-04-25T20:23:44.859Z,99076.16
2023-04-25T20:26:15.087Z,99062.22
2023-04-25T20:28:42.000Z,99069.31
2023-04-25T20:31:10.799Z,99065.91
2023-04-25T20:33:38.828Z,99064.66
2023-04-25T20:36:05.847Z,99077.28
2023-04-25T20:38:32.729Z,99074.53
2023-04-25T20:40:59.665Z,99073.59
2023-04-25T20:43:27.057Z,99074.16
2023-04-25T20:45:55.127Z,99073.97
2023-04-25T20:48:24.352Z,99076.31
2023-04-25T20:50:51.551Z,99074.44
2023-04-25T20:53:18.509Z,99079.66
2023-04-25T20:55:46.561Z,99084.22
2023-04-25T20:58:13.289Z,99082.16
2023-04-25T21:00:40.003Z,99081.59
2023-04-25T21:03:07.871Z,99081.75
2023-04-25T21:05:34.958Z,99089.81
2023-04-25T21:08:01.740Z,99090.34
2023-04-25T21:10:28.626Z,99086.50
2023-04-25T21:12:56.665Z,99090.88
2023-04-25T21:15:24.676Z,99094.06
2023-04-25T21:17:52.941Z,99089.09
2023-04-25T21:20:22.069Z,99097.41
2023-04-25T21:22:53.454Z,99095.09
2023-04-25T21:25:25.571Z,99095.84
2023-04-25T21:27:53.445Z,99099.78
2023-04-25T21:30:23.733Z,99097.34
2023-04-25T21:32:52.040Z,99096.41
2023-04-25T21:35:20.515Z,99099.28
2023-04-25T21:37:47.419Z,99097.28
2023-04-25T21:40:14.727Z,99106.25
2023-04-25T21:42:42.566Z,99104.09
2023-04-25T21:45:10.239Z,99116.72
2023-04-25T21:47:37.341Z,99106.03
2023-04-25T21:50:04.736Z,99115.41
2023-04-25T21:52:32.211Z,99114.50
2023-04-25T21:54:59.094Z,99113.84
2023-04-25T21:57:26.541Z,99123.97
2023-04-25T21:59:53.614Z,99126.34
2023-04-25T22:02:20.513Z,99122.63
2023-04-25T22:04:47.834Z,99125.72
2023-04-25T22:07:15.292Z,99124.09
2023-04-25T22:09:53.886Z,99124.56
2023-04-25T22:12:22.727Z,99121.00
2023-04-25T22:14:50.256Z,99131.00
2023-04-25T22:17:17.804Z,99126.66
2023-04-25T22:19:45.370Z,99124.78
2023-04-25T22:22:12.336Z,99124.72
2023-04-25T22:24:39.357Z,99115.13
2023-04-25T22:27:06.802Z,99121.25
2023-04-25T22:29:34.348Z,99131.03
2023-04-25T22:32:01.780Z,99130.38
2023-04-25T22:34:28.956Z,99134.69
2023-04-25T22:36:55.721Z,99136.31
2023-04-25T22:39:23.239Z,99144.22
2023-04-25T22:41:49.904Z,99141.31
2023-04-25T22:44:16.601Z,99146.69
2023-04-25T22:46:43.506Z,99141.47
2023-04-25T22:49:10.597Z,99137.81
2023-04-25T22:51:37.844Z,99143.75
2023-04-25T22:54:05.521Z,99146.09
2023-04-25T22:56:32.855Z,99151.91
2023-04-25T22:58:59.667Z,99152.03
2023-04-25T23:01:28.094Z,99157.78
2023-04-25T23:03:55.243Z,99158.50
2023-04-25T23:06:22.959Z,99159.41
2023-04-25T23:08:50.420Z,99162.03
2023-04-25T23:11:17.191Z,99165.34
2023-04-25T23:13:44.034Z,99167.13
2023-04-25T23:16:11.155Z,99175.53
2023-04-25T23:18:39.564Z,99178.03
2023-04-25T23:21:11.411Z,99179.75
2023-04-25T23:23:38.807Z,99184.75
2023-04-25T23:26:09.379Z,99183.88
2023-04-25T23:28:39.854Z,99186.66
2023-04-25T23:31:09.934Z,99186.94
2023-04-25T23:33:36.760Z,99184.25
2023-04-25T23:36:03.853Z,99192.38
2023-04-25T23:38:31.001Z,99192.38
2023-04-25T23:40:57.920Z,99190.69
2023-04-25T23:43:24.771Z,99196.34
2023-04-25T23:45:51.567Z,99196.56
2023-04-25T23:48:18.257Z,99194.91
2023-04-25T23:50:44.912Z,99189.66
2023-04-25T23:53:11.855Z,99192.44
2023-04-25T23:55:38.600Z,99196.50
2023-04-25T23:58:05.392Z,99200.25
